« Back
NWS Peachtree City, Ga » Text Product » AHN Terminal Aerodrome Forecast


Printer-friendly Version
Current Version              Previous Versions:   1  2  3  4  5  6  7  8  9  

Terminal Aerodrome Forecast

306
FTUS42 KFFC 211138
TAFAHN
TAF
KAHN 211138Z 2112/2212 04005KT 2SM BR OVC004
      TEMPO 2112/2115 1SM BR OVC002
     FM211600 07005KT 4SM BR OVC005
     FM211800 08007KT P6SM OVC009
     FM220400 09005KT 6SM BR OVC005
     FM220900 07008KT 4SM BR OVC003=



USA.gov is the U.S. government's official web portal to all federal, state and local government web resources and services.